createdAt,value
2016-11-04T00:00:36.373Z,1013.01
2016-11-04T00:01:18.014Z,1013.04
2016-11-04T00:01:59.699Z,1013.05
2016-11-04T00:02:41.304Z,1013.08
2016-11-04T00:03:23.109Z,1013.07
2016-11-04T00:04:04.764Z,1013.04
2016-11-04T00:04:46.364Z,1013.01
2016-11-04T00:05:28.137Z,1012.99
2016-11-04T00:06:09.783Z,1013
2016-11-04T00:06:51.417Z,1012.96
2016-11-04T00:07:33.051Z,1012.98
2016-11-04T00:08:14.729Z,1013
2016-11-04T00:10:09.481Z,1012.95
2016-11-04T00:10:51.072Z,1012.94
2016-11-04T00:12:45.816Z,1012.89
2016-11-04T00:13:28.478Z,1012.91
2016-11-04T00:14:10.104Z,1012.92
2016-11-04T00:14:51.807Z,1012.89
2016-11-04T00:15:33.601Z,1012.86
2016-11-04T00:17:48.946Z,1012.82
2016-11-04T00:18:30.643Z,1012.81
2016-11-04T00:19:12.352Z,1012.81
2016-11-04T00:19:54.171Z,1012.87
2016-11-04T00:22:14.668Z,1012.9
2016-11-04T00:24:14.656Z,1012.94
2016-11-04T00:27:58.812Z,1012.86
2016-11-04T00:28:40.355Z,1012.85
2016-11-04T00:29:22.133Z,1012.8
2016-11-04T00:30:03.805Z,1012.81
2016-11-04T00:30:45.616Z,1012.79
2016-11-04T00:31:27.268Z,1012.81
2016-11-04T00:32:09.223Z,1012.83
2016-11-04T00:32:50.841Z,1012.88
2016-11-04T00:33:32.435Z,1012.87
2016-11-04T00:34:14.145Z,1012.91
2016-11-04T00:34:55.793Z,1012.89
2016-11-04T00:37:11.112Z,1012.86
2016-11-04T00:37:52.824Z,1012.88
2016-11-04T00:38:34.535Z,1012.8
2016-11-04T00:39:16.161Z,1012.81
2016-11-04T00:39:57.862Z,1012.75
2016-11-04T00:40:39.488Z,1012.77
2016-11-04T00:42:54.893Z,1012.79
2016-11-04T00:43:36.597Z,1012.76
2016-11-04T00:44:18.267Z,1012.84
2016-11-04T00:44:59.945Z,1012.82
2016-11-04T00:47:30.936Z,1012.84
2016-11-04T00:48:12.635Z,1012.83
2016-11-04T00:48:54.382Z,1012.84
2016-11-04T00:49:36.012Z,1012.82
2016-11-04T00:50:17.498Z,1012.87
2016-11-04T00:50:59.259Z,1012.87
2016-11-04T00:51:40.892Z,1012.94
2016-11-04T00:52:22.535Z,1012.91
2016-11-04T00:53:04.319Z,1012.89
2016-11-04T00:54:59.063Z,1012.93
2016-11-04T00:55:40.768Z,1012.89
2016-11-04T00:56:22.549Z,1012.9
2016-11-04T00:58:43.201Z,1012.86
2016-11-04T00:59:24.615Z,1012.85
2016-11-04T01:01:39.909Z,1012.75
2016-11-04T01:02:21.435Z,1012.74
2016-11-04T01:03:03.253Z,1012.72
2016-11-04T01:03:44.702Z,1012.7
2016-11-04T01:04:26.476Z,1012.64
2016-11-04T01:05:07.717Z,1012.63
2016-11-04T01:05:49.302Z,1012.63
2016-11-04T01:06:30.501Z,1012.61
2016-11-04T01:08:51.140Z,1012.62
2016-11-04T01:11:11.786Z,1012.59
2016-11-04T01:11:53.422Z,1012.64
2016-11-04T01:14:08.598Z,1012.57
2016-11-04T01:14:50.293Z,1012.57
2016-11-04T01:15:32.035Z,1012.54
2016-11-04T01:16:13.765Z,1012.58
2016-11-04T01:16:55.376Z,1012.55
2016-11-04T01:19:10.794Z,1012.6
2016-11-04T01:19:52.520Z,1012.63
2016-11-04T01:20:34.560Z,1012.58
2016-11-04T01:21:16.287Z,1012.65
2016-11-04T01:21:57.858Z,1012.67
2016-11-04T01:22:39.638Z,1012.69
2016-11-04T01:23:21.216Z,1012.68
2016-11-04T01:25:41.874Z,1012.72
2016-11-04T01:28:12.784Z,1012.69
2016-11-04T01:28:54.410Z,1012.69
2016-11-04T01:29:36.170Z,1012.68
2016-11-04T01:30:17.877Z,1012.66
2016-11-04T01:30:59.643Z,1012.68
2016-11-04T01:31:41.226Z,1012.66
2016-11-04T01:32:23.002Z,1012.63
2016-11-04T01:34:53.969Z,1012.75
2016-11-04T01:35:35.683Z,1012.76
2016-11-04T01:36:17.403Z,1012.78
2016-11-04T01:38:17.331Z,1012.79
2016-11-04T01:40:17.236Z,1012.7
2016-11-04T01:40:59.002Z,1012.67
2016-11-04T01:41:40.145Z,1012.67
2016-11-04T01:42:21.356Z,1012.67
2016-11-04T01:43:02.857Z,1012.71
2016-11-04T01:43:43.676Z,1012.66
2016-11-04T01:44:24.435Z,1012.68
2016-11-04T01:45:05.699Z,1012.61
2016-11-04T01:45:46.730Z,1012.57
2016-11-04T01:46:27.811Z,1012.58
2016-11-04T01:47:09.022Z,1012.55
2016-11-04T01:47:50.676Z,1012.47
2016-11-04T01:48:32.270Z,1012.48
2016-11-04T01:49:13.925Z,1012.5
2016-11-04T01:49:55.411Z,1012.45
2016-11-04T01:50:37.095Z,1012.44
2016-11-04T01:52:57.648Z,1012.41
2016-11-04T01:53:39.326Z,1012.39
2016-11-04T01:54:20.799Z,1012.41
2016-11-04T01:55:02.463Z,1012.46
2016-11-04T01:57:17.623Z,1012.53
2016-11-04T01:57:59.346Z,1012.52
2016-11-04T02:00:30.327Z,1012.43
2016-11-04T02:01:12.059Z,1012.45
2016-11-04T02:01:53.669Z,1012.42
2016-11-04T02:02:34.548Z,1012.36
2016-11-04T02:03:15.065Z,1012.41
2016-11-04T02:03:55.580Z,1012.34
2016-11-04T02:04:36.117Z,1012.31
2016-11-04T02:05:16.647Z,1012.32
2016-11-04T02:05:57.165Z,1012.26
2016-11-04T02:06:37.698Z,1012.29
2016-11-04T02:07:18.219Z,1012.24
2016-11-04T02:07:58.752Z,1012.22
2016-11-04T02:08:39.277Z,1012.18
2016-11-04T02:09:19.786Z,1012.14
2016-11-04T02:10:00.312Z,1012.14
2016-11-04T02:10:40.841Z,1012.09
2016-11-04T02:11:21.356Z,1012.06
2016-11-04T02:12:01.872Z,1012.06
2016-11-04T02:12:42.404Z,1012.06
2016-11-04T02:13:22.927Z,1012.02
2016-11-04T02:14:03.446Z,1012.04
2016-11-04T02:14:43.965Z,1012.04
2016-11-04T02:15:24.502Z,1012
2016-11-04T02:16:05.031Z,1012.01
2016-11-04T02:16:45.527Z,1012.03
2016-11-04T02:17:26.068Z,1012.03
2016-11-04T02:18:06.605Z,1012.01
2016-11-04T02:18:47.128Z,1011.99
2016-11-04T02:19:27.666Z,1011.98
2016-11-04T02:20:08.188Z,1011.99
2016-11-04T02:20:48.714Z,1011.98
2016-11-04T02:21:29.225Z,1011.97
2016-11-04T02:22:09.748Z,1011.93
2016-11-04T02:22:50.268Z,1011.9
2016-11-04T02:23:30.804Z,1011.91
2016-11-04T02:24:11.317Z,1011.91
2016-11-04T02:24:51.835Z,1011.88
2016-11-04T02:25:32.360Z,1011.9
2016-11-04T02:26:12.863Z,1011.85
2016-11-04T02:26:53.385Z,1011.9
2016-11-04T02:27:33.885Z,1011.92
2016-11-04T02:28:14.408Z,1011.9
2016-11-04T02:28:54.909Z,1011.91
2016-11-04T02:29:35.427Z,1011.92
2016-11-04T02:30:15.956Z,1011.93
2016-11-04T02:30:56.467Z,1011.94
2016-11-04T02:31:36.981Z,1012
2016-11-04T02:32:17.488Z,1011.98
2016-11-04T02:32:58.005Z,1011.98
2016-11-04T02:33:38.533Z,1012
2016-11-04T02:34:19.050Z,1012
2016-11-04T02:34:59.568Z,1011.99
2016-11-04T02:35:40.099Z,1012
2016-11-04T02:36:20.600Z,1012.03
2016-11-04T02:37:01.123Z,1011.96
2016-11-04T02:37:41.653Z,1011.99
2016-11-04T02:38:22.188Z,1011.97
2016-11-04T02:39:02.684Z,1011.99
2016-11-04T02:39:43.201Z,1012.02
2016-11-04T02:40:23.709Z,1012.04
2016-11-04T02:41:04.239Z,1012.05
2016-11-04T02:41:44.779Z,1012.05
2016-11-04T02:42:25.316Z,1012.05
2016-11-04T02:43:05.844Z,1012.01
2016-11-04T02:43:46.362Z,1012
2016-11-04T02:44:26.897Z,1011.98
2016-11-04T02:45:07.423Z,1012.01
2016-11-04T02:45:47.964Z,1012.02
2016-11-04T02:46:28.456Z,1012.02
2016-11-04T02:47:08.980Z,1012.02
2016-11-04T02:47:49.510Z,1012.02
2016-11-04T02:48:30.027Z,1012
2016-11-04T02:49:10.545Z,1012.05
2016-11-04T02:49:51.068Z,1012.04
2016-11-04T02:50:31.592Z,1012.05
2016-11-04T02:51:12.146Z,1012.05
2016-11-04T02:51:52.672Z,1012.03
2016-11-04T02:52:33.200Z,1011.99
2016-11-04T02:53:13.740Z,1011.98
2016-11-04T02:53:54.274Z,1011.99
2016-11-04T02:54:34.815Z,1011.98
2016-11-04T02:55:15.356Z,1011.95
2016-11-04T02:55:55.882Z,1011.98
2016-11-04T02:56:36.405Z,1011.94
2016-11-04T02:57:16.946Z,1011.96
2016-11-04T02:57:57.466Z,1011.94
2016-11-04T02:58:38.004Z,1011.93
2016-11-04T02:59:18.531Z,1011.89
2016-11-04T02:59:59.037Z,1011.94
2016-11-04T03:00:39.565Z,1011.93
2016-11-04T03:01:20.092Z,1011.89
2016-11-04T03:02:00.611Z,1011.85
2016-11-04T03:02:41.134Z,1011.88
2016-11-04T03:03:21.675Z,1011.86
2016-11-04T03:04:02.193Z,1011.87
2016-11-04T03:04:42.709Z,1011.87
2016-11-04T03:05:23.242Z,1011.85
2016-11-04T03:06:03.762Z,1011.83
2016-11-04T03:06:44.275Z,1011.87
2016-11-04T03:07:24.811Z,1011.84
2016-11-04T03:08:05.346Z,1011.88
2016-11-04T03:08:45.878Z,1011.93
2016-11-04T03:09:26.416Z,1011.92
2016-11-04T03:10:06.915Z,1011.93
2016-11-04T03:10:47.441Z,1011.96
2016-11-04T03:11:27.977Z,1011.99
2016-11-04T03:12:08.512Z,1011.97
2016-11-04T03:12:49.050Z,1011.97
2016-11-04T03:13:29.574Z,1011.96
2016-11-04T03:14:10.090Z,1011.99
2016-11-04T03:14:50.616Z,1012.02
2016-11-04T03:15:31.108Z,1011.98
2016-11-04T03:16:11.661Z,1011.98
2016-11-04T03:16:52.193Z,1012.02
2016-11-04T03:17:32.724Z,1012.01
2016-11-04T03:18:13.244Z,1012.01
2016-11-04T03:18:53.767Z,1011.98
2016-11-04T03:19:34.302Z,1011.96
2016-11-04T03:20:14.829Z,1011.92
2016-11-04T03:20:55.363Z,1011.93
2016-11-04T03:21:35.901Z,1011.85
2016-11-04T03:22:16.414Z,1011.81
2016-11-04T03:22:56.933Z,1011.78
2016-11-04T03:23:37.468Z,1011.76
2016-11-04T03:24:17.975Z,1011.77
2016-11-04T03:24:58.503Z,1011.7
2016-11-04T03:25:39.047Z,1011.69
2016-11-04T03:26:19.580Z,1011.72
2016-11-04T03:27:00.102Z,1011.68
2016-11-04T03:27:40.643Z,1011.68
2016-11-04T03:28:21.172Z,1011.69
2016-11-04T03:29:01.697Z,1011.67
2016-11-04T03:29:42.223Z,1011.67
2016-11-04T03:30:22.743Z,1011.67
2016-11-04T03:31:03.262Z,1011.68
2016-11-04T03:31:43.798Z,1011.64
2016-11-04T03:32:24.336Z,1011.62
2016-11-04T03:33:04.864Z,1011.66
2016-11-04T03:33:45.392Z,1011.66
2016-11-04T03:34:25.918Z,1011.64
2016-11-04T03:35:06.453Z,1011.61
2016-11-04T03:35:46.980Z,1011.6
2016-11-04T03:36:27.493Z,1011.59
2016-11-04T03:37:08.022Z,1011.58
2016-11-04T03:37:48.536Z,1011.56
2016-11-04T03:38:29.047Z,1011.55
2016-11-04T03:39:09.593Z,1011.58
2016-11-04T03:39:50.103Z,1011.56
2016-11-04T03:40:30.633Z,1011.55
2016-11-04T03:41:11.179Z,1011.53
2016-11-04T03:41:51.685Z,1011.53
2016-11-04T03:42:32.228Z,1011.52
2016-11-04T03:43:12.756Z,1011.51
2016-11-04T03:43:53.272Z,1011.48
2016-11-04T03:44:33.803Z,1011.51
2016-11-04T03:45:14.330Z,1011.53
2016-11-04T03:45:54.858Z,1011.56
2016-11-04T03:46:35.385Z,1011.55
2016-11-04T03:47:15.903Z,1011.58
2016-11-04T03:47:56.432Z,1011.56
2016-11-04T03:48:36.937Z,1011.55
2016-11-04T03:49:17.444Z,1011.55
2016-11-04T03:49:57.978Z,1011.55
2016-11-04T03:50:38.495Z,1011.5
2016-11-04T03:51:19.007Z,1011.5
2016-11-04T03:51:59.525Z,1011.45
2016-11-04T03:52:40.044Z,1011.45
2016-11-04T03:53:20.567Z,1011.44
2016-11-04T03:54:01.073Z,1011.45
2016-11-04T03:54:41.605Z,1011.47
2016-11-04T03:55:22.119Z,1011.45
2016-11-04T03:56:02.631Z,1011.5
2016-11-04T03:56:43.162Z,1011.47
2016-11-04T03:57:23.698Z,1011.48
2016-11-04T03:58:04.234Z,1011.48
2016-11-04T03:58:44.841Z,1011.48
2016-11-04T03:59:25.361Z,1011.46
2016-11-04T04:00:05.870Z,1011.46
2016-11-04T04:00:46.416Z,1011.49
2016-11-04T04:01:26.947Z,1011.45
2016-11-04T04:02:07.490Z,1011.43
2016-11-04T04:02:48.016Z,1011.46
2016-11-04T04:03:28.550Z,1011.43
2016-11-04T04:04:09.100Z,1011.42
2016-11-04T04:04:49.637Z,1011.39
2016-11-04T04:05:30.161Z,1011.33
2016-11-04T04:06:10.676Z,1011.32
2016-11-04T04:06:51.190Z,1011.34
2016-11-04T04:07:31.810Z,1011.31
2016-11-04T04:08:12.337Z,1011.32
2016-11-04T04:08:52.889Z,1011.27
2016-11-04T04:09:33.391Z,1011.35
2016-11-04T04:10:13.902Z,1011.3
2016-11-04T04:10:54.425Z,1011.32
2016-11-04T04:11:34.953Z,1011.32
2016-11-04T04:12:15.490Z,1011.32
2016-11-04T04:12:55.999Z,1011.32
2016-11-04T04:13:36.525Z,1011.29
2016-11-04T04:14:17.068Z,1011.33
2016-11-04T04:14:57.613Z,1011.34
2016-11-04T04:15:38.161Z,1011.38
2016-11-04T04:16:18.695Z,1011.39
2016-11-04T04:16:59.209Z,1011.43
2016-11-04T04:17:39.759Z,1011.38
2016-11-04T04:18:20.274Z,1011.33
2016-11-04T04:19:00.801Z,1011.31
2016-11-04T04:19:41.409Z,1011.34
2016-11-04T04:20:21.907Z,1011.31
2016-11-04T04:21:02.436Z,1011.29
2016-11-04T04:21:42.972Z,1011.27
2016-11-04T04:22:23.498Z,1011.28
2016-11-04T04:23:04.031Z,1011.29
2016-11-04T04:23:44.561Z,1011.28
2016-11-04T04:24:25.079Z,1011.31
2016-11-04T04:25:05.603Z,1011.32
2016-11-04T04:25:46.159Z,1011.35
2016-11-04T04:26:26.681Z,1011.39
2016-11-04T04:27:07.213Z,1011.4
2016-11-04T04:27:47.752Z,1011.39
2016-11-04T04:28:29.261Z,1011.38
2016-11-04T04:29:09.771Z,1011.35
2016-11-04T04:29:50.352Z,1011.37
2016-11-04T04:30:30.876Z,1011.38
2016-11-04T04:31:11.392Z,1011.38
2016-11-04T04:31:51.922Z,1011.39
2016-11-04T04:32:32.436Z,1011.4
2016-11-04T04:33:12.951Z,1011.44
2016-11-04T04:33:53.462Z,1011.4
2016-11-04T04:34:33.985Z,1011.37
2016-11-04T04:35:14.488Z,1011.35
2016-11-04T04:35:55.025Z,1011.31
2016-11-04T04:36:35.555Z,1011.3
2016-11-04T04:37:16.104Z,1011.27
2016-11-04T04:37:56.638Z,1011.23
2016-11-04T04:38:37.168Z,1011.21
2016-11-04T04:39:17.663Z,1011.25
2016-11-04T04:39:58.229Z,1011.27
2016-11-04T04:40:38.781Z,1011.28
2016-11-04T04:41:19.262Z,1011.2
2016-11-04T04:41:59.803Z,1011.18
2016-11-04T04:42:40.306Z,1011.15
2016-11-04T04:43:20.817Z,1011.1
2016-11-04T04:44:01.325Z,1011.1
2016-11-04T04:44:41.851Z,1011.11
2016-11-04T04:45:22.388Z,1011.09
2016-11-04T04:46:02.939Z,1011.13
2016-11-04T04:46:43.440Z,1011.11
2016-11-04T04:47:23.965Z,1011.15
2016-11-04T04:48:04.509Z,1011.14
2016-11-04T04:48:45.034Z,1011.11
2016-11-04T04:49:25.579Z,1011.1
2016-11-04T04:50:06.100Z,1011.08
2016-11-04T04:50:46.624Z,1011.11
2016-11-04T04:51:27.145Z,1011.06
2016-11-04T04:52:07.640Z,1011.05
2016-11-04T04:52:48.167Z,1011.08
2016-11-04T04:53:28.698Z,1011.04
2016-11-04T04:54:09.237Z,1011.07
2016-11-04T04:54:49.748Z,1011.08
2016-11-04T04:55:30.303Z,1011.08
2016-11-04T04:56:10.825Z,1011.07
2016-11-04T04:56:51.346Z,1011.07
2016-11-04T04:57:31.859Z,1011.05
2016-11-04T04:58:12.390Z,1011.01
2016-11-04T04:58:52.906Z,1010.95
2016-11-04T04:59:33.421Z,1010.93
2016-11-04T05:00:13.933Z,1010.9
2016-11-04T05:00:54.489Z,1010.86
2016-11-04T05:01:34.979Z,1010.89
2016-11-04T05:02:15.499Z,1010.88
2016-11-04T05:04:34.791Z,1010.88
2016-11-04T05:05:15.282Z,1010.89
2016-11-04T05:05:56.643Z,1010.88
2016-11-04T05:06:37.165Z,1010.91
2016-11-04T05:07:17.680Z,1010.9
2016-11-04T05:07:58.200Z,1010.94
2016-11-04T05:08:38.700Z,1010.93
2016-11-04T05:09:19.297Z,1010.9
2016-11-04T05:09:59.822Z,1010.89
2016-11-04T05:10:40.358Z,1010.87
2016-11-04T05:11:20.874Z,1010.82
2016-11-04T05:12:01.387Z,1010.8
2016-11-04T05:12:41.899Z,1010.77
2016-11-04T05:13:22.411Z,1010.77
2016-11-04T05:14:02.934Z,1010.74
2016-11-04T05:14:43.445Z,1010.75
2016-11-04T05:15:23.958Z,1010.78
2016-11-04T05:16:04.476Z,1010.77
2016-11-04T05:16:44.972Z,1010.81
2016-11-04T05:17:25.497Z,1010.81
2016-11-04T05:18:06.027Z,1010.67
2016-11-04T05:18:46.528Z,1010.71
2016-11-04T05:19:27.053Z,1010.7
2016-11-04T05:20:07.590Z,1010.64
2016-11-04T05:20:48.091Z,1010.64
2016-11-04T05:21:28.596Z,1010.63
2016-11-04T05:22:09.131Z,1010.64
2016-11-04T05:22:49.663Z,1010.62
2016-11-04T05:23:30.176Z,1010.59
2016-11-04T05:24:10.673Z,1010.62
2016-11-04T05:24:51.183Z,1010.55
2016-11-04T05:25:31.745Z,1010.52
2016-11-04T05:26:12.254Z,1010.53
2016-11-04T05:26:52.770Z,1010.55
2016-11-04T05:27:33.302Z,1010.52
2016-11-04T05:28:13.824Z,1010.57
2016-11-04T05:28:54.346Z,1010.54
2016-11-04T05:29:34.861Z,1010.58
2016-11-04T05:30:15.363Z,1010.54
2016-11-04T05:30:55.909Z,1010.54
2016-11-04T05:31:36.438Z,1010.52
2016-11-04T05:32:16.962Z,1010.55
2016-11-04T05:32:57.484Z,1010.58
2016-11-04T05:33:38.016Z,1010.6
2016-11-04T05:34:18.526Z,1010.63
2016-11-04T05:34:59.052Z,1010.63
2016-11-04T05:35:39.563Z,1010.63
2016-11-04T05:36:20.096Z,1010.61
2016-11-04T05:37:00.623Z,1010.62
2016-11-04T05:37:41.136Z,1010.64
2016-11-04T05:38:21.666Z,1010.62
2016-11-04T05:39:02.208Z,1010.63
2016-11-04T05:39:42.736Z,1010.62
2016-11-04T05:40:23.234Z,1010.59
2016-11-04T05:41:03.761Z,1010.59
2016-11-04T05:41:44.286Z,1010.58
2016-11-04T05:42:24.796Z,1010.55
2016-11-04T05:43:05.328Z,1010.55
2016-11-04T05:43:45.841Z,1010.53
2016-11-04T05:44:26.344Z,1010.52
2016-11-04T05:45:06.847Z,1010.56
2016-11-04T05:45:47.358Z,1010.5
2016-11-04T05:46:27.872Z,1010.53
2016-11-04T05:47:08.393Z,1010.53
2016-11-04T05:47:48.927Z,1010.49
2016-11-04T05:48:29.431Z,1010.43
2016-11-04T05:49:09.963Z,1010.41
2016-11-04T05:49:50.506Z,1010.39
2016-11-04T05:50:31.205Z,1010.45
2016-11-04T05:51:11.920Z,1010.47
2016-11-04T05:51:52.450Z,1010.45
2016-11-04T05:52:32.981Z,1010.39
2016-11-04T05:53:13.494Z,1010.37
2016-11-04T05:53:54.020Z,1010.38
2016-11-04T05:54:34.560Z,1010.37
2016-11-04T05:55:15.075Z,1010.35
2016-11-04T05:55:55.590Z,1010.38
2016-11-04T05:56:36.179Z,1010.37
2016-11-04T05:57:16.664Z,1010.37
2016-11-04T05:57:57.184Z,1010.39
2016-11-04T05:58:37.707Z,1010.41
2016-11-04T05:59:18.220Z,1010.47
2016-11-04T05:59:58.747Z,1010.46
2016-11-04T06:00:39.267Z,1010.42
2016-11-04T06:01:19.801Z,1010.46
2016-11-04T06:02:00.329Z,1010.49
2016-11-04T06:02:40.866Z,1010.5
2016-11-04T06:03:21.367Z,1010.52
2016-11-04T06:04:01.911Z,1010.5
2016-11-04T06:04:42.426Z,1010.54
2016-11-04T06:05:22.953Z,1010.54
2016-11-04T06:06:03.482Z,1010.57
2016-11-04T06:06:44.022Z,1010.6
2016-11-04T06:07:24.576Z,1010.56
2016-11-04T06:08:05.084Z,1010.55
2016-11-04T06:08:45.613Z,1010.55
2016-11-04T06:09:26.128Z,1010.56
2016-11-04T06:10:06.639Z,1010.53
2016-11-04T06:10:47.176Z,1010.55
2016-11-04T06:11:27.711Z,1010.57
2016-11-04T06:12:08.224Z,1010.51
2016-11-04T06:12:48.749Z,1010.54
2016-11-04T06:13:29.278Z,1010.55
2016-11-04T06:14:09.821Z,1010.56
2016-11-04T06:14:50.327Z,1010.58
2016-11-04T06:15:30.837Z,1010.59
2016-11-04T06:16:11.366Z,1010.64
2016-11-04T06:16:51.879Z,1010.6
2016-11-04T06:17:32.401Z,1010.61
2016-11-04T06:18:12.931Z,1010.62
2016-11-04T06:18:53.467Z,1010.58
2016-11-04T06:19:33.979Z,1010.59
2016-11-04T06:20:14.508Z,1010.57
2016-11-04T06:20:55.028Z,1010.58
2016-11-04T06:21:35.550Z,1010.54
2016-11-04T06:22:16.066Z,1010.53
2016-11-04T06:22:56.601Z,1010.49
2016-11-04T06:23:37.126Z,1010.53
2016-11-04T06:24:17.662Z,1010.51
2016-11-04T06:24:58.175Z,1010.5
2016-11-04T06:25:38.687Z,1010.49
2016-11-04T06:26:19.210Z,1010.52
2016-11-04T06:26:59.732Z,1010.5
2016-11-04T06:27:40.253Z,1010.46
2016-11-04T06:28:20.788Z,1010.52
2016-11-04T06:29:01.322Z,1010.46
2016-11-04T06:29:41.847Z,1010.46
2016-11-04T06:30:22.370Z,1010.48
2016-11-04T06:31:02.882Z,1010.45
2016-11-04T06:31:43.409Z,1010.46
2016-11-04T06:32:23.929Z,1010.43
2016-11-04T06:33:04.420Z,1010.44
2016-11-04T06:33:44.913Z,1010.45
2016-11-04T06:34:25.434Z,1010.44
2016-11-04T06:35:05.972Z,1010.45
2016-11-04T06:35:46.484Z,1010.51
2016-11-04T06:36:27.026Z,1010.49
2016-11-04T06:37:07.564Z,1010.49
2016-11-04T06:37:48.071Z,1010.48
2016-11-04T06:38:28.586Z,1010.51
2016-11-04T06:39:09.126Z,1010.52
2016-11-04T06:39:49.627Z,1010.53
2016-11-04T06:40:30.134Z,1010.53
2016-11-04T06:41:10.639Z,1010.53
2016-11-04T06:41:51.167Z,1010.56
2016-11-04T06:42:31.698Z,1010.58
2016-11-04T06:43:12.212Z,1010.57
2016-11-04T06:43:52.755Z,1010.63
2016-11-04T06:44:33.279Z,1010.57
2016-11-04T06:45:13.800Z,1010.52
2016-11-04T06:45:54.311Z,1010.56
2016-11-04T06:46:34.838Z,1010.49
2016-11-04T06:47:15.379Z,1010.52
2016-11-04T06:47:55.960Z,1010.5
2016-11-04T06:48:36.490Z,1010.49
2016-11-04T06:49:17.020Z,1010.46
2016-11-04T06:49:57.512Z,1010.49
2016-11-04T06:50:38.047Z,1010.47
2016-11-04T06:51:18.587Z,1010.45
2016-11-04T06:51:59.123Z,1010.45
2016-11-04T06:52:39.615Z,1010.46
2016-11-04T06:53:20.145Z,1010.42
2016-11-04T06:54:00.683Z,1010.48
2016-11-04T06:54:41.204Z,1010.49
2016-11-04T06:55:21.727Z,1010.44
2016-11-04T06:56:02.239Z,1010.46
2016-11-04T06:56:42.767Z,1010.46
2016-11-04T06:57:23.290Z,1010.43
2016-11-04T06:58:03.821Z,1010.42
2016-11-04T06:58:44.362Z,1010.46
2016-11-04T06:59:24.861Z,1010.45
2016-11-04T07:00:05.387Z,1010.43
2016-11-04T07:00:45.902Z,1010.44
2016-11-04T07:01:26.451Z,1010.37
2016-11-04T07:02:06.980Z,1010.36
2016-11-04T07:02:47.491Z,1010.38
2016-11-04T07:03:27.981Z,1010.39
2016-11-04T07:04:08.500Z,1010.41
2016-11-04T07:04:49.022Z,1010.4
2016-11-04T07:05:29.533Z,1010.4
2016-11-04T07:06:10.069Z,1010.4
2016-11-04T07:06:50.588Z,1010.36
2016-11-04T07:07:31.117Z,1010.38
2016-11-04T07:08:11.645Z,1010.42
2016-11-04T07:08:52.168Z,1010.4
2016-11-04T07:09:32.710Z,1010.38
2016-11-04T07:10:13.237Z,1010.43
2016-11-04T07:10:53.768Z,1010.42
2016-11-04T07:11:34.269Z,1010.42
2016-11-04T07:12:14.792Z,1010.37
2016-11-04T07:12:55.317Z,1010.38
2016-11-04T07:13:35.848Z,1010.42
2016-11-04T07:14:16.378Z,1010.45
2016-11-04T07:14:56.888Z,1010.44
2016-11-04T07:15:37.427Z,1010.43
2016-11-04T07:16:17.954Z,1010.43
2016-11-04T07:16:58.489Z,1010.39
2016-11-04T07:17:38.997Z,1010.47
2016-11-04T07:18:19.508Z,1010.48
2016-11-04T07:19:00.030Z,1010.52
2016-11-04T07:19:40.535Z,1010.52
2016-11-04T07:20:21.079Z,1010.54
2016-11-04T07:21:01.608Z,1010.55
2016-11-04T07:21:42.142Z,1010.51
2016-11-04T07:22:22.664Z,1010.5
2016-11-04T07:23:03.174Z,1010.43
2016-11-04T07:23:43.704Z,1010.41
2016-11-04T07:24:24.254Z,1010.39
2016-11-04T07:25:04.801Z,1010.35
2016-11-04T07:25:45.320Z,1010.25
2016-11-04T07:26:25.839Z,1010.26
2016-11-04T07:27:06.359Z,1010.24
2016-11-04T07:27:46.894Z,1010.24
2016-11-04T07:28:27.457Z,1010.25
2016-11-04T07:29:07.994Z,1010.28
2016-11-04T07:29:48.537Z,1010.19
2016-11-04T07:30:29.065Z,1010.24
2016-11-04T07:31:09.598Z,1010.28
2016-11-04T07:31:50.123Z,1010.31
2016-11-04T07:32:30.657Z,1010.37
2016-11-04T07:33:11.185Z,1010.42
2016-11-04T07:33:51.713Z,1010.41
2016-11-04T07:34:32.233Z,1010.4
2016-11-04T07:35:12.747Z,1010.33
2016-11-04T07:35:53.274Z,1010.32
2016-11-04T07:36:33.792Z,1010.33
2016-11-04T07:37:14.311Z,1010.25
2016-11-04T07:37:54.841Z,1010.28
2016-11-04T07:38:35.369Z,1010.2
2016-11-04T07:39:15.886Z,1010.22
2016-11-04T07:39:56.405Z,1010.16
2016-11-04T07:40:36.943Z,1010.14
2016-11-04T07:41:17.474Z,1010.05
2016-11-04T07:41:57.980Z,1010.01
2016-11-04T07:42:38.506Z,1009.92
2016-11-04T07:43:19.031Z,1009.93
2016-11-04T07:43:59.551Z,1009.89
2016-11-04T07:44:40.067Z,1009.81
2016-11-04T07:45:20.601Z,1009.76
2016-11-04T07:46:01.133Z,1009.74
2016-11-04T07:46:41.637Z,1009.68
2016-11-04T07:47:22.156Z,1009.63
2016-11-04T07:48:02.708Z,1009.59
2016-11-04T07:48:43.234Z,1009.55
2016-11-04T07:49:23.760Z,1009.42
2016-11-04T07:50:04.281Z,1009.41
2016-11-04T07:50:44.831Z,1009.46
2016-11-04T07:51:25.353Z,1009.53
2016-11-04T07:52:05.900Z,1009.66
2016-11-04T07:52:46.405Z,1009.74
2016-11-04T07:53:26.932Z,1009.82
2016-11-04T07:54:07.450Z,1009.83
2016-11-04T07:54:47.987Z,1009.79
2016-11-04T07:55:28.507Z,1009.8
2016-11-04T07:56:09.044Z,1009.73
2016-11-04T07:56:49.561Z,1009.74
2016-11-04T07:57:30.081Z,1009.66
2016-11-04T07:58:10.595Z,1009.66
2016-11-04T07:58:51.113Z,1009.58
2016-11-04T07:59:31.638Z,1009.62
2016-11-04T08:00:12.139Z,1009.58
2016-11-04T08:00:52.668Z,1009.56
2016-11-04T08:01:33.200Z,1009.56
2016-11-04T08:02:13.702Z,1009.53
2016-11-04T08:02:54.204Z,1009.54
2016-11-04T08:03:34.745Z,1009.56
2016-11-04T08:04:15.253Z,1009.57
2016-11-04T08:04:55.777Z,1009.56
2016-11-04T08:05:36.337Z,1009.57
2016-11-04T08:06:16.834Z,1009.62
2016-11-04T08:06:57.358Z,1009.58
2016-11-04T08:07:37.868Z,1009.62
2016-11-04T08:08:18.397Z,1009.61
2016-11-04T08:08:58.892Z,1009.66
2016-11-04T08:09:39.413Z,1009.65
2016-11-04T08:10:19.958Z,1009.61
2016-11-04T08:11:00.500Z,1009.63
2016-11-04T08:11:40.993Z,1009.6
2016-11-04T08:12:21.521Z,1009.52
2016-11-04T08:13:02.036Z,1009.55
2016-11-04T08:13:42.562Z,1009.53
2016-11-04T08:14:23.091Z,1009.51
2016-11-04T08:15:03.604Z,1009.46
2016-11-04T08:15:44.135Z,1009.44
2016-11-04T08:16:24.650Z,1009.38
2016-11-04T08:17:05.159Z,1009.33
2016-11-04T08:17:45.664Z,1009.31
2016-11-04T08:18:26.188Z,1009.29
2016-11-04T08:19:06.715Z,1009.28
2016-11-04T08:19:47.251Z,1009.22
2016-11-04T08:20:27.795Z,1009.22
2016-11-04T08:21:08.343Z,1009.17
2016-11-04T08:21:48.867Z,1009.2
2016-11-04T08:22:29.408Z,1009.17
2016-11-04T08:23:09.932Z,1009.14
2016-11-04T08:23:50.448Z,1009.16
2016-11-04T08:24:30.961Z,1009.18
2016-11-04T08:25:11.460Z,1009.15
2016-11-04T08:25:51.979Z,1009.16
2016-11-04T08:26:32.495Z,1009.17
2016-11-04T08:27:13.018Z,1009.11
2016-11-04T08:27:53.556Z,1009.1
2016-11-04T08:28:34.070Z,1009.02
2016-11-04T08:29:14.592Z,1008.94
2016-11-04T08:29:55.104Z,1008.87
2016-11-04T08:30:35.613Z,1008.92
2016-11-04T08:31:16.126Z,1008.87
2016-11-04T08:31:56.639Z,1008.87
2016-11-04T08:32:37.165Z,1008.87
2016-11-04T08:33:17.668Z,1008.87
2016-11-04T08:33:58.196Z,1008.91
2016-11-04T08:34:38.728Z,1008.92
2016-11-04T08:35:19.229Z,1008.91
2016-11-04T08:35:59.807Z,1008.85
2016-11-04T08:36:40.324Z,1008.84
2016-11-04T08:37:20.852Z,1008.82
2016-11-04T08:38:01.380Z,1008.77
2016-11-04T08:38:41.893Z,1008.77
2016-11-04T08:39:22.412Z,1008.76
2016-11-04T08:40:02.920Z,1008.72
2016-11-04T08:40:43.447Z,1008.73
2016-11-04T08:41:23.980Z,1008.71
2016-11-04T08:42:04.514Z,1008.73
2016-11-04T08:42:45.052Z,1008.71
2016-11-04T08:43:25.554Z,1008.63
2016-11-04T08:44:06.076Z,1008.66
2016-11-04T08:44:46.610Z,1008.69
2016-11-04T08:45:27.135Z,1008.66
2016-11-04T08:46:07.638Z,1008.65
2016-11-04T08:46:48.160Z,1008.69
2016-11-04T08:47:28.681Z,1008.7
2016-11-04T08:48:09.187Z,1008.71
2016-11-04T08:48:49.731Z,1008.72
2016-11-04T08:49:30.268Z,1008.74
2016-11-04T08:50:10.787Z,1008.77
2016-11-04T08:50:51.320Z,1008.78
2016-11-04T08:51:31.857Z,1008.8
2016-11-04T08:52:12.367Z,1008.84
2016-11-04T08:52:52.893Z,1008.87
2016-11-04T08:53:33.403Z,1008.86
2016-11-04T08:54:13.930Z,1008.85
2016-11-04T08:54:54.456Z,1008.86